sensor_id;sensor_type;location;lat;lon;timestamp;P1;durP1;ratioP1;P2;durP2;ratioP2
39094;SDS011;24840;47.508;19.376;2023-09-19T00:01:41;9.20;;;5.93;;
39094;SDS011;24840;47.508;19.376;2023-09-19T00:04:10;9.98;;;5.10;;
39094;SDS011;24840;47.508;19.376;2023-09-19T00:06:39;15.57;;;5.70;;
39094;SDS011;24840;47.508;19.376;2023-09-19T00:09:05;9.60;;;4.82;;
39094;SDS011;24840;47.508;19.376;2023-09-19T00:11:36;6.68;;;4.82;;
39094;SDS011;24840;47.508;19.376;2023-09-19T00:14:03;8.75;;;5.25;;
39094;SDS011;24840;47.508;19.376;2023-09-19T00:16:30;7.75;;;5.45;;
39094;SDS011;24840;47.508;19.376;2023-09-19T00:18:57;10.15;;;5.43;;
39094;SDS011;24840;47.508;19.376;2023-09-19T00:21:24;8.85;;;5.88;;
39094;SDS011;24840;47.508;19.376;2023-09-19T00:23:49;7.82;;;5.50;;
39094;SDS011;24840;47.508;19.376;2023-09-19T00:26:17;8.00;;;5.50;;
39094;SDS011;24840;47.508;19.376;2023-09-19T00:28:43;6.50;;;4.93;;
39094;SDS011;24840;47.508;19.376;2023-09-19T00:31:09;10.75;;;5.43;;
39094;SDS011;24840;47.508;19.376;2023-09-19T00:33:34;13.43;;;5.32;;
39094;SDS011;24840;47.508;19.376;2023-09-19T00:36:01;10.18;;;5.47;;
39094;SDS011;24840;47.508;19.376;2023-09-19T00:38:30;13.68;;;5.00;;
39094;SDS011;24840;47.508;19.376;2023-09-19T00:40:57;16.58;;;6.38;;
39094;SDS011;24840;47.508;19.376;2023-09-19T00:43:24;13.63;;;5.88;;
39094;SDS011;24840;47.508;19.376;2023-09-19T00:45:55;8.55;;;5.22;;
39094;SDS011;24840;47.508;19.376;2023-09-19T00:48:22;8.70;;;4.80;;
39094;SDS011;24840;47.508;19.376;2023-09-19T00:50:53;13.13;;;6.18;;
39094;SDS011;24840;47.508;19.376;2023-09-19T00:53:23;9.85;;;6.03;;
39094;SDS011;24840;47.508;19.376;2023-09-19T00:55:50;13.85;;;6.00;;
39094;SDS011;24840;47.508;19.376;2023-09-19T00:58:17;11.65;;;5.78;;
39094;SDS011;24840;47.508;19.376;2023-09-19T01:00:43;13.73;;;5.63;;
39094;SDS011;24840;47.508;19.376;2023-09-19T01:03:10;9.63;;;5.32;;
39094;SDS011;24840;47.508;19.376;2023-09-19T01:05:38;8.70;;;5.82;;
39094;SDS011;24840;47.508;19.376;2023-09-19T01:08:04;11.77;;;5.70;;
39094;SDS011;24840;47.508;19.376;2023-09-19T01:10:31;10.50;;;5.53;;
39094;SDS011;24840;47.508;19.376;2023-09-19T01:21:21;10.18;;;5.40;;
39094;SDS011;24840;47.508;19.376;2023-09-19T01:32:10;6.57;;;5.68;;
39094;SDS011;24840;47.508;19.376;2023-09-19T01:34:54;7.63;;;5.93;;
39094;SDS011;24840;47.508;19.376;2023-09-19T01:37:29;9.45;;;6.45;;
39094;SDS011;24840;47.508;19.376;2023-09-19T01:40:03;7.50;;;6.15;;
39094;SDS011;24840;47.508;19.376;2023-09-19T01:45:26;9.15;;;5.78;;
39094;SDS011;24840;47.508;19.376;2023-09-19T01:48:05;13.60;;;6.50;;
39094;SDS011;24840;47.508;19.376;2023-09-19T01:50:58;15.70;;;6.60;;
39094;SDS011;24840;47.508;19.376;2023-09-19T01:56:12;14.25;;;6.28;;
39094;SDS011;24840;47.508;19.376;2023-09-19T01:58:51;7.10;;;6.15;;
39094;SDS011;24840;47.508;19.376;2023-09-19T02:01:22;8.85;;;5.97;;
39094;SDS011;24840;47.508;19.376;2023-09-19T02:03:49;12.30;;;6.00;;
39094;SDS011;24840;47.508;19.376;2023-09-19T02:06:15;12.30;;;6.03;;
39094;SDS011;24840;47.508;19.376;2023-09-19T02:08:44;11.30;;;6.03;;
39094;SDS011;24840;47.508;19.376;2023-09-19T02:11:10;10.75;;;6.30;;
39094;SDS011;24840;47.508;19.376;2023-09-19T02:13:38;7.30;;;6.13;;
39094;SDS011;24840;47.508;19.376;2023-09-19T02:16:04;14.93;;;5.90;;
39094;SDS011;24840;47.508;19.376;2023-09-19T02:18:31;10.80;;;5.72;;
39094;SDS011;24840;47.508;19.376;2023-09-19T02:21:00;9.88;;;5.30;;
39094;SDS011;24840;47.508;19.376;2023-09-19T02:23:27;11.45;;;6.63;;
39094;SDS011;24840;47.508;19.376;2023-09-19T02:25:55;11.90;;;5.93;;
39094;SDS011;24840;47.508;19.376;2023-09-19T02:28:25;10.75;;;6.22;;
39094;SDS011;24840;47.508;19.376;2023-09-19T02:30:55;10.05;;;5.93;;
39094;SDS011;24840;47.508;19.376;2023-09-19T02:33:21;12.85;;;5.80;;
39094;SDS011;24840;47.508;19.376;2023-09-19T02:35:47;11.75;;;5.93;;
39094;SDS011;24840;47.508;19.376;2023-09-19T02:38:13;9.50;;;6.13;;
39094;SDS011;24840;47.508;19.376;2023-09-19T02:40:43;10.55;;;5.75;;
39094;SDS011;24840;47.508;19.376;2023-09-19T02:43:09;10.82;;;6.60;;
39094;SDS011;24840;47.508;19.376;2023-09-19T02:45:35;9.68;;;5.90;;
39094;SDS011;24840;47.508;19.376;2023-09-19T02:48:00;12.18;;;6.47;;
39094;SDS011;24840;47.508;19.376;2023-09-19T02:50:27;10.25;;;6.15;;
39094;SDS011;24840;47.508;19.376;2023-09-19T02:52:53;13.43;;;6.43;;
39094;SDS011;24840;47.508;19.376;2023-09-19T02:55:19;11.15;;;6.15;;
39094;SDS011;24840;47.508;19.376;2023-09-19T02:57:50;11.27;;;5.90;;
39094;SDS011;24840;47.508;19.376;2023-09-19T03:00:18;7.47;;;5.35;;
39094;SDS011;24840;47.508;19.376;2023-09-19T03:02:50;12.00;;;5.70;;
39094;SDS011;24840;47.508;19.376;2023-09-19T03:05:26;11.15;;;6.68;;
39094;SDS011;24840;47.508;19.376;2023-09-19T03:07:56;9.70;;;5.95;;
39094;SDS011;24840;47.508;19.376;2023-09-19T03:10:25;15.10;;;5.82;;
39094;SDS011;24840;47.508;19.376;2023-09-19T03:12:51;8.65;;;5.40;;
39094;SDS011;24840;47.508;19.376;2023-09-19T03:15:17;7.20;;;5.90;;
39094;SDS011;24840;47.508;19.376;2023-09-19T03:17:47;12.18;;;5.97;;
39094;SDS011;24840;47.508;19.376;2023-09-19T03:20:13;12.23;;;6.30;;
39094;SDS011;24840;47.508;19.376;2023-09-19T03:22:42;8.40;;;5.90;;
39094;SDS011;24840;47.508;19.376;2023-09-19T03:25:10;9.48;;;5.97;;
39094;SDS011;24840;47.508;19.376;2023-09-19T03:27:39;10.85;;;6.65;;
39094;SDS011;24840;47.508;19.376;2023-09-19T03:30:06;11.80;;;7.03;;
39094;SDS011;24840;47.508;19.376;2023-09-19T03:32:36;10.60;;;6.38;;
39094;SDS011;24840;47.508;19.376;2023-09-19T03:35:02;10.50;;;6.35;;
39094;SDS011;24840;47.508;19.376;2023-09-19T03:37:30;8.70;;;6.15;;
39094;SDS011;24840;47.508;19.376;2023-09-19T03:39:58;8.15;;;5.53;;
39094;SDS011;24840;47.508;19.376;2023-09-19T03:42:23;14.70;;;5.90;;
39094;SDS011;24840;47.508;19.376;2023-09-19T03:44:53;9.65;;;5.53;;
39094;SDS011;24840;47.508;19.376;2023-09-19T03:47:20;8.13;;;5.60;;
39094;SDS011;24840;47.508;19.376;2023-09-19T03:49:45;5.90;;;4.88;;
39094;SDS011;24840;47.508;19.376;2023-09-19T03:52:11;12.73;;;6.10;;
39094;SDS011;24840;47.508;19.376;2023-09-19T03:54:37;8.82;;;6.00;;
39094;SDS011;24840;47.508;19.376;2023-09-19T03:57:10;11.32;;;5.90;;
39094;SDS011;24840;47.508;19.376;2023-09-19T03:59:40;7.18;;;6.35;;
39094;SDS011;24840;47.508;19.376;2023-09-19T04:02:08;13.20;;;6.03;;
39094;SDS011;24840;47.508;19.376;2023-09-19T04:04:46;7.72;;;6.15;;
39094;SDS011;24840;47.508;19.376;2023-09-19T04:07:13;11.73;;;6.25;;
39094;SDS011;24840;47.508;19.376;2023-09-19T04:09:38;10.57;;;6.97;;
39094;SDS011;24840;47.508;19.376;2023-09-19T04:12:04;11.38;;;6.50;;
39094;SDS011;24840;47.508;19.376;2023-09-19T04:14:30;9.25;;;6.47;;
39094;SDS011;24840;47.508;19.376;2023-09-19T04:16:56;17.38;;;6.88;;
39094;SDS011;24840;47.508;19.376;2023-09-19T04:19:22;8.93;;;5.78;;
39094;SDS011;24840;47.508;19.376;2023-09-19T04:21:47;13.88;;;7.05;;
39094;SDS011;24840;47.508;19.376;2023-09-19T04:24:13;17.58;;;7.18;;
39094;SDS011;24840;47.508;19.376;2023-09-19T04:26:39;11.73;;;6.45;;
39094;SDS011;24840;47.508;19.376;2023-09-19T04:29:04;10.30;;;6.50;;
39094;SDS011;24840;47.508;19.376;2023-09-19T04:31:31;14.57;;;6.68;;
39094;SDS011;24840;47.508;19.376;2023-09-19T04:33:57;13.45;;;6.72;;
39094;SDS011;24840;47.508;19.376;2023-09-19T04:36:24;9.65;;;6.20;;
39094;SDS011;24840;47.508;19.376;2023-09-19T04:38:50;7.35;;;6.15;;
39094;SDS011;24840;47.508;19.376;2023-09-19T04:41:16;11.90;;;7.20;;
39094;SDS011;24840;47.508;19.376;2023-09-19T04:43:42;10.00;;;6.38;;
39094;SDS011;24840;47.508;19.376;2023-09-19T04:46:07;12.05;;;6.38;;
39094;SDS011;24840;47.508;19.376;2023-09-19T04:48:33;10.45;;;7.03;;
39094;SDS011;24840;47.508;19.376;2023-09-19T04:51:00;9.30;;;6.47;;
39094;SDS011;24840;47.508;19.376;2023-09-19T04:53:25;13.77;;;6.53;;
39094;SDS011;24840;47.508;19.376;2023-09-19T04:55:53;13.05;;;6.90;;
39094;SDS011;24840;47.508;19.376;2023-09-19T04:58:20;9.20;;;6.38;;
39094;SDS011;24840;47.508;19.376;2023-09-19T05:00:47;11.27;;;6.53;;
39094;SDS011;24840;47.508;19.376;2023-09-19T05:03:12;12.73;;;6.47;;
39094;SDS011;24840;47.508;19.376;2023-09-19T05:05:38;9.13;;;6.57;;
39094;SDS011;24840;47.508;19.376;2023-09-19T05:08:06;14.50;;;7.53;;
39094;SDS011;24840;47.508;19.376;2023-09-19T05:10:34;12.70;;;6.80;;
39094;SDS011;24840;47.508;19.376;2023-09-19T05:13:03;8.93;;;6.50;;
39094;SDS011;24840;47.508;19.376;2023-09-19T05:15:31;9.52;;;7.03;;
39094;SDS011;24840;47.508;19.376;2023-09-19T05:17:56;16.00;;;7.03;;
39094;SDS011;24840;47.508;19.376;2023-09-19T05:20:22;17.35;;;7.35;;
39094;SDS011;24840;47.508;19.376;2023-09-19T05:23:07;18.60;;;7.97;;
39094;SDS011;24840;47.508;19.376;2023-09-19T05:25:34;16.13;;;7.13;;
39094;SDS011;24840;47.508;19.376;2023-09-19T05:28:08;12.00;;;7.85;;
39094;SDS011;24840;47.508;19.376;2023-09-19T05:30:35;11.73;;;6.60;;
39094;SDS011;24840;47.508;19.376;2023-09-19T05:33:03;11.45;;;7.47;;
39094;SDS011;24840;47.508;19.376;2023-09-19T05:35:30;12.40;;;6.97;;
39094;SDS011;24840;47.508;19.376;2023-09-19T05:37:56;18.05;;;7.25;;
39094;SDS011;24840;47.508;19.376;2023-09-19T05:40:24;15.55;;;7.50;;
39094;SDS011;24840;47.508;19.376;2023-09-19T05:42:50;17.80;;;6.85;;
39094;SDS011;24840;47.508;19.376;2023-09-19T05:45:16;20.15;;;7.68;;
39094;SDS011;24840;47.508;19.376;2023-09-19T05:47:49;20.50;;;7.30;;
39094;SDS011;24840;47.508;19.376;2023-09-19T05:50:16;13.52;;;6.38;;
39094;SDS011;24840;47.508;19.376;2023-09-19T05:52:43;10.32;;;5.47;;
39094;SDS011;24840;47.508;19.376;2023-09-19T05:55:17;11.93;;;6.57;;
39094;SDS011;24840;47.508;19.376;2023-09-19T05:57:43;10.15;;;6.13;;
39094;SDS011;24840;47.508;19.376;2023-09-19T06:00:21;10.18;;;5.30;;
39094;SDS011;24840;47.508;19.376;2023-09-19T06:02:52;10.48;;;3.45;;
39094;SDS011;24840;47.508;19.376;2023-09-19T06:05:25;5.10;;;1.80;;
39094;SDS011;24840;47.508;19.376;2023-09-19T06:07:52;15.82;;;1.98;;
39094;SDS011;24840;47.508;19.376;2023-09-19T06:10:25;4.57;;;1.52;;
39094;SDS011;24840;47.508;19.376;2023-09-19T06:12:51;3.08;;;1.10;;
39094;SDS011;24840;47.508;19.376;2023-09-19T06:15:18;9.25;;;1.10;;
39094;SDS011;24840;47.508;19.376;2023-09-19T06:17:47;9.07;;;1.58;;
39094;SDS011;24840;47.508;19.376;2023-09-19T06:20:20;3.88;;;0.80;;
39094;SDS011;24840;47.508;19.376;2023-09-19T06:22:48;5.80;;;0.70;;
39094;SDS011;24840;47.508;19.376;2023-09-19T06:25:15;2.33;;;0.70;;
39094;SDS011;24840;47.508;19.376;2023-09-19T06:27:47;2.78;;;0.43;;
39094;SDS011;24840;47.508;19.376;2023-09-19T06:30:17;5.38;;;0.82;;
39094;SDS011;24840;47.508;19.376;2023-09-19T06:32:46;4.50;;;0.85;;
39094;SDS011;24840;47.508;19.376;2023-09-19T06:35:13;3.25;;;0.77;;
39094;SDS011;24840;47.508;19.376;2023-09-19T06:37:41;0.70;;;0.40;;
39094;SDS011;24840;47.508;19.376;2023-09-19T06:40:08;2.85;;;0.70;;
39094;SDS011;24840;47.508;19.376;2023-09-19T06:42:49;2.70;;;0.65;;
39094;SDS011;24840;47.508;19.376;2023-09-19T06:45:16;1.20;;;0.70;;
39094;SDS011;24840;47.508;19.376;2023-09-19T06:47:48;7.90;;;1.13;;
39094;SDS011;24840;47.508;19.376;2023-09-19T06:50:16;4.30;;;0.50;;
39094;SDS011;24840;47.508;19.376;2023-09-19T06:55:15;2.10;;;0.52;;
39094;SDS011;24840;47.508;19.376;2023-09-19T06:57:45;1.05;;;0.45;;
39094;SDS011;24840;47.508;19.376;2023-09-19T07:00:14;1.15;;;0.40;;
39094;SDS011;24840;47.508;19.376;2023-09-19T07:05:23;1.55;;;1.02;;
39094;SDS011;24840;47.508;19.376;2023-09-19T07:07:49;0.88;;;0.50;;
39094;SDS011;24840;47.508;19.376;2023-09-19T07:10:18;1.17;;;0.70;;
39094;SDS011;24840;47.508;19.376;2023-09-19T07:12:45;1.63;;;0.50;;
39094;SDS011;24840;47.508;19.376;2023-09-19T07:15:11;1.60;;;0.73;;
39094;SDS011;24840;47.508;19.376;2023-09-19T07:17:36;1.63;;;0.60;;
39094;SDS011;24840;47.508;19.376;2023-09-19T07:20:02;3.78;;;1.10;;
39094;SDS011;24840;47.508;19.376;2023-09-19T07:22:35;5.18;;;0.77;;
39094;SDS011;24840;47.508;19.376;2023-09-19T07:25:04;0.93;;;0.35;;
39094;SDS011;24840;47.508;19.376;2023-09-19T07:27:30;0.88;;;0.40;;
39094;SDS011;24840;47.508;19.376;2023-09-19T07:29:59;1.20;;;0.47;;
39094;SDS011;24840;47.508;19.376;2023-09-19T07:32:24;3.42;;;0.73;;
39094;SDS011;24840;47.508;19.376;2023-09-19T07:34:50;1.27;;;0.35;;
39094;SDS011;24840;47.508;19.376;2023-09-19T07:37:16;4.57;;;0.57;;
39094;SDS011;24840;47.508;19.376;2023-09-19T07:39:42;1.33;;;0.40;;
39094;SDS011;24840;47.508;19.376;2023-09-19T07:42:09;0.40;;;0.30;;
39094;SDS011;24840;47.508;19.376;2023-09-19T07:44:36;3.50;;;0.43;;
39094;SDS011;24840;47.508;19.376;2023-09-19T07:47:02;4.13;;;1.00;;
39094;SDS011;24840;47.508;19.376;2023-09-19T07:49:30;1.73;;;0.60;;
39094;SDS011;24840;47.508;19.376;2023-09-19T07:51:56;2.47;;;0.50;;
39094;SDS011;24840;47.508;19.376;2023-09-19T07:54:25;4.80;;;0.80;;
39094;SDS011;24840;47.508;19.376;2023-09-19T07:56:52;2.50;;;0.65;;
39094;SDS011;24840;47.508;19.376;2023-09-19T07:59:18;1.20;;;0.55;;
39094;SDS011;24840;47.508;19.376;2023-09-19T08:01:44;2.50;;;0.70;;
39094;SDS011;24840;47.508;19.376;2023-09-19T08:04:10;1.65;;;0.73;;
39094;SDS011;24840;47.508;19.376;2023-09-19T08:06:57;0.95;;;0.47;;
39094;SDS011;24840;47.508;19.376;2023-09-19T08:09:28;2.78;;;0.93;;
39094;SDS011;24840;47.508;19.376;2023-09-19T08:11:58;0.60;;;0.43;;
39094;SDS011;24840;47.508;19.376;2023-09-19T08:14:27;1.80;;;0.88;;
39094;SDS011;24840;47.508;19.376;2023-09-19T08:16:56;1.10;;;0.90;;
39094;SDS011;24840;47.508;19.376;2023-09-19T08:19:25;1.95;;;0.90;;
39094;SDS011;24840;47.508;19.376;2023-09-19T08:21:56;1.25;;;0.50;;
39094;SDS011;24840;47.508;19.376;2023-09-19T08:24:42;2.15;;;0.77;;
39094;SDS011;24840;47.508;19.376;2023-09-19T08:27:13;0.75;;;0.50;;
39094;SDS011;24840;47.508;19.376;2023-09-19T08:29:39;3.50;;;0.57;;
39094;SDS011;24840;47.508;19.376;2023-09-19T08:32:05;1.27;;;0.52;;
39094;SDS011;24840;47.508;19.376;2023-09-19T08:34:31;0.82;;;0.47;;
39094;SDS011;24840;47.508;19.376;2023-09-19T08:36:59;2.97;;;0.75;;
39094;SDS011;24840;47.508;19.376;2023-09-19T08:39:26;2.25;;;0.47;;
39094;SDS011;24840;47.508;19.376;2023-09-19T08:41:58;2.75;;;0.73;;
39094;SDS011;24840;47.508;19.376;2023-09-19T08:44:27;2.17;;;1.17;;
39094;SDS011;24840;47.508;19.376;2023-09-19T08:47:31;1.35;;;0.77;;
39094;SDS011;24840;47.508;19.376;2023-09-19T08:50:01;1.52;;;0.75;;
39094;SDS011;24840;47.508;19.376;2023-09-19T08:52:42;1.35;;;0.63;;
39094;SDS011;24840;47.508;19.376;2023-09-19T08:55:14;3.20;;;0.85;;
39094;SDS011;24840;47.508;19.376;2023-09-19T08:57:46;2.65;;;0.98;;
39094;SDS011;24840;47.508;19.376;2023-09-19T09:00:18;3.50;;;0.82;;
39094;SDS011;24840;47.508;19.376;2023-09-19T09:02:46;1.65;;;0.80;;
39094;SDS011;24840;47.508;19.376;2023-09-19T09:05:16;1.27;;;0.70;;
39094;SDS011;24840;47.508;19.376;2023-09-19T09:07:47;2.22;;;1.20;;
39094;SDS011;24840;47.508;19.376;2023-09-19T09:10:18;3.08;;;1.15;;
39094;SDS011;24840;47.508;19.376;2023-09-19T09:12:53;2.30;;;0.90;;
39094;SDS011;24840;47.508;19.376;2023-09-19T09:15:20;1.70;;;0.90;;
39094;SDS011;24840;47.508;19.376;2023-09-19T09:17:50;3.03;;;1.25;;
39094;SDS011;24840;47.508;19.376;2023-09-19T09:20:18;2.08;;;0.85;;
39094;SDS011;24840;47.508;19.376;2023-09-19T09:22:51;1.55;;;0.70;;
39094;SDS011;24840;47.508;19.376;2023-09-19T09:25:19;1.33;;;0.90;;
39094;SDS011;24840;47.508;19.376;2023-09-19T09:28:01;2.10;;;0.85;;
39094;SDS011;24840;47.508;19.376;2023-09-19T09:30:33;2.63;;;1.00;;
39094;SDS011;24840;47.508;19.376;2023-09-19T09:33:12;1.25;;;0.85;;
39094;SDS011;24840;47.508;19.376;2023-09-19T09:36:13;4.30;;;1.58;;
39094;SDS011;24840;47.508;19.376;2023-09-19T09:38:44;2.40;;;1.13;;
39094;SDS011;24840;47.508;19.376;2023-09-19T09:41:12;1.02;;;0.57;;
39094;SDS011;24840;47.508;19.376;2023-09-19T09:43:41;2.90;;;0.90;;
39094;SDS011;24840;47.508;19.376;2023-09-19T09:51:30;2.88;;;0.85;;
39094;SDS011;24840;47.508;19.376;2023-09-19T09:54:09;4.00;;;1.00;;
39094;SDS011;24840;47.508;19.376;2023-09-19T09:56:59;0.80;;;0.52;;
39094;SDS011;24840;47.508;19.376;2023-09-19T09:59:49;2.13;;;1.10;;
39094;SDS011;24840;47.508;19.376;2023-09-19T10:02:19;1.52;;;1.10;;
39094;SDS011;24840;47.508;19.376;2023-09-19T10:04:53;3.28;;;0.90;;
39094;SDS011;24840;47.508;19.376;2023-09-19T10:07:40;2.65;;;1.17;;
39094;SDS011;24840;47.508;19.376;2023-09-19T10:10:12;2.72;;;0.80;;
39094;SDS011;24840;47.508;19.376;2023-09-19T10:12:45;3.22;;;1.08;;
39094;SDS011;24840;47.508;19.376;2023-09-19T10:15:13;1.63;;;0.77;;
39094;SDS011;24840;47.508;19.376;2023-09-19T10:17:46;3.72;;;0.80;;
39094;SDS011;24840;47.508;19.376;2023-09-19T10:20:13;1.08;;;0.57;;
39094;SDS011;24840;47.508;19.376;2023-09-19T10:23:00;4.65;;;0.90;;
39094;SDS011;24840;47.508;19.376;2023-09-19T10:25:28;6.13;;;1.15;;
39094;SDS011;24840;47.508;19.376;2023-09-19T10:27:56;1.50;;;0.90;;
39094;SDS011;24840;47.508;19.376;2023-09-19T10:30:29;1.88;;;0.93;;
39094;SDS011;24840;47.508;19.376;2023-09-19T10:33:01;1.35;;;1.02;;
39094;SDS011;24840;47.508;19.376;2023-09-19T10:35:28;6.90;;;1.05;;
39094;SDS011;24840;47.508;19.376;2023-09-19T10:37:55;2.67;;;1.45;;
39094;SDS011;24840;47.508;19.376;2023-09-19T10:40:24;4.25;;;1.48;;
39094;SDS011;24840;47.508;19.376;2023-09-19T10:43:05;2.95;;;1.00;;
39094;SDS011;24840;47.508;19.376;2023-09-19T10:45:34;3.50;;;1.25;;
39094;SDS011;24840;47.508;19.376;2023-09-19T10:48:03;3.30;;;0.90;;
39094;SDS011;24840;47.508;19.376;2023-09-19T10:50:31;3.15;;;1.20;;
39094;SDS011;24840;47.508;19.376;2023-09-19T10:53:06;2.28;;;1.20;;
39094;SDS011;24840;47.508;19.376;2023-09-19T10:55:36;7.80;;;1.33;;
39094;SDS011;24840;47.508;19.376;2023-09-19T10:58:03;5.80;;;1.27;;
39094;SDS011;24840;47.508;19.376;2023-09-19T11:01:13;1.52;;;1.02;;
39094;SDS011;24840;47.508;19.376;2023-09-19T11:03:37;1.60;;;1.10;;
39094;SDS011;24840;47.508;19.376;2023-09-19T11:33:21;2.15;;;1.10;;
39094;SDS011;24840;47.508;19.376;2023-09-19T11:36:04;4.00;;;1.17;;
39094;SDS011;24840;47.508;19.376;2023-09-19T11:39:01;2.53;;;1.38;;
39094;SDS011;24840;47.508;19.376;2023-09-19T11:41:36;2.75;;;1.25;;
39094;SDS011;24840;47.508;19.376;2023-09-19T11:46:51;4.80;;;1.50;;
39094;SDS011;24840;47.508;19.376;2023-09-19T11:49:17;2.00;;;1.08;;
39094;SDS011;24840;47.508;19.376;2023-09-19T11:51:49;5.00;;;1.23;;
39094;SDS011;24840;47.508;19.376;2023-09-19T11:54:19;4.60;;;1.40;;
39094;SDS011;24840;47.508;19.376;2023-09-19T11:56:49;3.15;;;1.15;;
39094;SDS011;24840;47.508;19.376;2023-09-19T11:59:19;3.60;;;0.82;;
39094;SDS011;24840;47.508;19.376;2023-09-19T14:09:55;6.50;;;1.52;;
39094;SDS011;24840;47.508;19.376;2023-09-19T14:12:21;7.95;;;2.28;;
39094;SDS011;24840;47.508;19.376;2023-09-19T14:14:46;2.97;;;2.03;;
39094;SDS011;24840;47.508;19.376;2023-09-19T14:17:12;7.10;;;1.90;;
39094;SDS011;24840;47.508;19.376;2023-09-19T14:19:40;2.30;;;1.67;;
39094;SDS011;24840;47.508;19.376;2023-09-19T14:22:07;4.90;;;1.60;;
39094;SDS011;24840;47.508;19.376;2023-09-19T14:24:35;4.70;;;2.00;;
39094;SDS011;24840;47.508;19.376;2023-09-19T14:27:01;2.40;;;1.63;;
39094;SDS011;24840;47.508;19.376;2023-09-19T14:29:29;2.55;;;1.60;;
39094;SDS011;24840;47.508;19.376;2023-09-19T14:31:56;3.08;;;1.50;;
39094;SDS011;24840;47.508;19.376;2023-09-19T14:34:22;2.67;;;1.45;;
39094;SDS011;24840;47.508;19.376;2023-09-19T14:36:48;3.30;;;1.83;;
39094;SDS011;24840;47.508;19.376;2023-09-19T14:39:14;2.63;;;1.40;;
39094;SDS011;24840;47.508;19.376;2023-09-19T14:41:39;2.83;;;2.42;;
39094;SDS011;24840;47.508;19.376;2023-09-19T14:44:05;4.28;;;1.70;;
39094;SDS011;24840;47.508;19.376;2023-09-19T14:46:31;5.95;;;2.30;;
39094;SDS011;24840;47.508;19.376;2023-09-19T14:48:57;2.25;;;1.40;;
39094;SDS011;24840;47.508;19.376;2023-09-19T14:51:28;3.33;;;1.95;;
39094;SDS011;24840;47.508;19.376;2023-09-19T14:53:55;1.70;;;1.45;;
39094;SDS011;24840;47.508;19.376;2023-09-19T14:56:21;3.08;;;1.48;;
39094;SDS011;24840;47.508;19.376;2023-09-19T14:58:50;1.55;;;1.13;;
39094;SDS011;24840;47.508;19.376;2023-09-19T15:01:16;1.90;;;1.70;;
39094;SDS011;24840;47.508;19.376;2023-09-19T15:03:42;3.30;;;1.52;;
39094;SDS011;24840;47.508;19.376;2023-09-19T15:06:09;3.55;;;2.10;;
39094;SDS011;24840;47.508;19.376;2023-09-19T15:08:39;2.83;;;1.70;;
39094;SDS011;24840;47.508;19.376;2023-09-19T15:11:10;2.28;;;1.70;;
39094;SDS011;24840;47.508;19.376;2023-09-19T15:16:11;2.25;;;1.63;;
39094;SDS011;24840;47.508;19.376;2023-09-19T15:18:38;3.80;;;1.60;;
39094;SDS011;24840;47.508;19.376;2023-09-19T15:21:07;3.17;;;1.83;;
39094;SDS011;24840;47.508;19.376;2023-09-19T15:23:34;2.25;;;1.70;;
39094;SDS011;24840;47.508;19.376;2023-09-19T15:26:02;4.13;;;1.75;;
39094;SDS011;24840;47.508;19.376;2023-09-19T15:28:29;2.58;;;1.50;;
39094;SDS011;24840;47.508;19.376;2023-09-19T15:31:00;2.60;;;1.27;;
39094;SDS011;24840;47.508;19.376;2023-09-19T15:33:37;3.55;;;1.50;;
39094;SDS011;24840;47.508;19.376;2023-09-19T15:36:06;6.07;;;1.95;;
39094;SDS011;24840;47.508;19.376;2023-09-19T15:41:30;2.75;;;1.58;;
39094;SDS011;24840;47.508;19.376;2023-09-19T15:43:57;5.60;;;2.05;;
39094;SDS011;24840;47.508;19.376;2023-09-19T15:46:30;4.40;;;2.00;;
39094;SDS011;24840;47.508;19.376;2023-09-19T15:48:59;2.90;;;1.80;;
39094;SDS011;24840;47.508;19.376;2023-09-19T15:51:26;2.63;;;1.38;;
39094;SDS011;24840;47.508;19.376;2023-09-19T15:53:52;14.23;;;1.92;;
39094;SDS011;24840;47.508;19.376;2023-09-19T15:56:20;4.43;;;1.60;;
39094;SDS011;24840;47.508;19.376;2023-09-19T15:58:48;2.95;;;1.70;;
39094;SDS011;24840;47.508;19.376;2023-09-19T16:01:15;8.95;;;1.63;;
39094;SDS011;24840;47.508;19.376;2023-09-19T16:03:44;1.40;;;1.25;;
39094;SDS011;24840;47.508;19.376;2023-09-19T16:06:12;2.70;;;1.70;;
39094;SDS011;24840;47.508;19.376;2023-09-19T16:08:40;1.83;;;1.25;;
39094;SDS011;24840;47.508;19.376;2023-09-19T16:11:10;3.92;;;1.30;;
39094;SDS011;24840;47.508;19.376;2023-09-19T16:13:40;4.30;;;1.60;;
39094;SDS011;24840;47.508;19.376;2023-09-19T16:16:07;3.10;;;1.73;;
39094;SDS011;24840;47.508;19.376;2023-09-19T16:18:33;4.80;;;1.60;;
39094;SDS011;24840;47.508;19.376;2023-09-19T16:21:03;7.35;;;1.33;;
39094;SDS011;24840;47.508;19.376;2023-09-19T16:23:32;4.05;;;1.67;;
39094;SDS011;24840;47.508;19.376;2023-09-19T16:26:04;7.97;;;1.95;;
39094;SDS011;24840;47.508;19.376;2023-09-19T16:28:31;3.10;;;1.40;;
39094;SDS011;24840;47.508;19.376;2023-09-19T16:30:59;4.05;;;1.30;;
39094;SDS011;24840;47.508;19.376;2023-09-19T16:33:27;4.68;;;1.45;;
39094;SDS011;24840;47.508;19.376;2023-09-19T16:35:53;5.45;;;1.15;;
39094;SDS011;24840;47.508;19.376;2023-09-19T16:38:19;2.80;;;1.70;;
39094;SDS011;24840;47.508;19.376;2023-09-19T16:40:54;3.97;;;1.42;;
39094;SDS011;24840;47.508;19.376;2023-09-19T16:43:22;5.95;;;1.48;;
39094;SDS011;24840;47.508;19.376;2023-09-19T16:45:54;6.97;;;1.65;;
39094;SDS011;24840;47.508;19.376;2023-09-19T16:48:24;3.42;;;1.20;;
39094;SDS011;24840;47.508;19.376;2023-09-19T16:50:50;5.35;;;1.60;;
39094;SDS011;24840;47.508;19.376;2023-09-19T16:53:18;10.98;;;1.27;;
39094;SDS011;24840;47.508;19.376;2023-09-19T16:55:44;4.20;;;1.30;;
39094;SDS011;24840;47.508;19.376;2023-09-19T16:58:15;5.10;;;1.35;;
39094;SDS011;24840;47.508;19.376;2023-09-19T17:00:42;10.53;;;1.47;;
39094;SDS011;24840;47.508;19.376;2023-09-19T17:03:10;2.40;;;1.50;;
39094;SDS011;24840;47.508;19.376;2023-09-19T17:05:38;8.05;;;1.90;;
39094;SDS011;24840;47.508;19.376;2023-09-19T17:08:08;5.72;;;1.63;;
39094;SDS011;24840;47.508;19.376;2023-09-19T17:10:34;8.27;;;1.60;;
39094;SDS011;24840;47.508;19.376;2023-09-19T17:13:01;4.13;;;1.20;;
39094;SDS011;24840;47.508;19.376;2023-09-19T17:15:30;6.35;;;1.60;;
39094;SDS011;24840;47.508;19.376;2023-09-19T17:17:57;4.53;;;1.40;;
39094;SDS011;24840;47.508;19.376;2023-09-19T17:20:23;2.38;;;1.15;;
39094;SDS011;24840;47.508;19.376;2023-09-19T17:22:49;3.83;;;1.58;;
39094;SDS011;24840;47.508;19.376;2023-09-19T17:25:15;2.05;;;1.23;;
39094;SDS011;24840;47.508;19.376;2023-09-19T17:27:41;1.77;;;1.20;;
39094;SDS011;24840;47.508;19.376;2023-09-19T17:30:14;2.03;;;1.02;;
39094;SDS011;24840;47.508;19.376;2023-09-19T17:32:41;2.83;;;1.30;;
39094;SDS011;24840;47.508;19.376;2023-09-19T17:35:07;2.17;;;1.27;;
39094;SDS011;24840;47.508;19.376;2023-09-19T17:37:34;1.95;;;1.27;;
39094;SDS011;24840;47.508;19.376;2023-09-19T17:40:00;1.17;;;0.98;;
39094;SDS011;24840;47.508;19.376;2023-09-19T17:42:29;3.25;;;1.25;;
39094;SDS011;24840;47.508;19.376;2023-09-19T17:44:55;3.08;;;1.30;;
39094;SDS011;24840;47.508;19.376;2023-09-19T17:47:21;5.25;;;0.85;;
39094;SDS011;24840;47.508;19.376;2023-09-19T17:49:50;2.67;;;1.35;;
39094;SDS011;24840;47.508;19.376;2023-09-19T17:52:18;1.65;;;0.85;;
39094;SDS011;24840;47.508;19.376;2023-09-19T17:54:44;1.85;;;1.15;;
39094;SDS011;24840;47.508;19.376;2023-09-19T17:57:10;3.83;;;1.00;;
39094;SDS011;24840;47.508;19.376;2023-09-19T17:59:36;1.33;;;0.90;;